Terminal Aerodrome Forecast
Issued by NWS

Home | Current Version | Previous Version | Text Only | Print | Product List | Glossary On
Versions: 1 2 3 4 5 6 7 8 9 10 11 12 13 14 15 16 17 18 19 20 21 22 23 24
000
FTUS41 KOKX 280600 RRA
TAFGON
TAF
KGON 280605Z 2806/2906 VRB03KT 5SM BR BKN007
     FM281100 16008KT 6SM -SHRA OVC007
     FM281500 19008KT 6SM BR BKN015
     FM281700 19008KT 6SM HZ BKN040
     FM282000 21011KT P6SM SCT040
     FM290200 27011G18KT P6SM FEW020 SCT040=

USA.gov is the U.S. government's official web portal to all federal, state and local government web resources and services.